Logan, New Mexico
Current Conditions -  °F | °C
As of 11:53 AM on Monday 20 Oct 2014 (Local Time) from KTCC Reporting Station
Clear Clear  
Wind Chill: 72°   Ceiling: Unl
Heat Index: 72°   Visibility: 10mi
Dew Point: 46°   Wind: 5mph
Humidity: 40%   Direction: NA
Pressure: 30.15"   Gusts: NA
Location:  35.37°N, 103.41°W
Report Text: KTCC 201753Z AUTO VRB04KT 10SM CLR 22/08 A3015 RMK AO2 SLP164 T02220078 10228 20094 58003
Loading
Personal Weather Stations






























Interactive Weather Map
Tropical Storm Tracking
New forecast layout! Learn more

10-Day Weather Forecast

Advertisements
Track Severe Weather on mobile